ICAO code: LHPR | IATA code: QGY | AFTN: LHPRZPZX | magyar | deutsch
Weather : 2019-02-21 05:40 (UTC) | Temperature: -0.3 °C | QNH: 1027.4 hPa | Wind: 2.1 m/s | More
Live ATC LHPR
Live webcam

Győr-Pér Airport Meteor data

Metar:
METAR LHPR 202245Z AUTO 29003KT 240V320 CAVOK 03/M01 Q1026 RMK BL


Taf:
TAF LHPR 202000Z NIL


Present weather:
Cloud development not observed or observable
Date stamp: 2019-02-21 05:40:00 UTC
Air Temp:
-0.3 °C
 
Dewpoint:
-1.8 °C
 
Rel. Humidity:
89%
 
QNH:
1027.4 hPa
 
Wind speed:
2.1 m/s
Max:
2.5 m/s
Wind direction:
260°
 
Precipitation (1 hour):
0.0 mm
 
Visibility:
7677 m
 
RVR:
>1500 m RWY30
 
1st cloud layer quantity:
0 octa
 
1st cloud layer base:
m


Az adatokat szolgáltatja
az Országos Meteorológiai Szolgálat
Győr-Pér Airport | H 9099 Pér, Repülőtér | Tel: +36/96/559-200 | Fax: +36/96/559-202

ICAO code: LHPR | IATA code: QGY | AFTN: LHPRZPZX


weboldal tervezés: IRQ